Time;durP1;ratioP1;P1;durP2;ratioP2;P2;SDS_P1;SDS_P2;PMS_P1;PMS_P2;Temp;Humidity;BMP_temperature;BMP_pressure;BME280_temperature;BME280_humidity;BME280_pressure;Samples;Min_cycle;Max_cycle;Signal;HPM_P1;HPM_P2
2023/10/10 00:02:18;;;;;;;12.50;3.03;;;;;;;;;;5032594;28;20121;-77
2023/10/10 00:04:48;;;;;;;22.05;3.10;;;;;;;;;;5032911;28;20067;-77
2023/10/10 00:07:14;;;;;;;13.52;3.70;;;;;;;;;;5032489;28;20448;-76
2023/10/10 00:09:43;;;;;;;12.10;3.33;;;;;;;;;;5033158;28;20037;-76
2023/10/10 00:12:09;;;;;;;24.05;3.45;;;;;;;;;;5015280;28;20107;-77
2023/10/10 00:14:35;;;;;;;12.70;3.67;;;;;;;;;;5052456;28;20025;-76
2023/10/10 00:17:00;;;;;;;16.55;2.78;;;;;;;;;;5050158;28;20234;-77
2023/10/10 00:19:37;;;;;;;14.23;3.55;;;;;;;;;;5050075;28;20452;-76
2023/10/10 00:22:05;;;;;;;23.08;3.90;;;;;;;;;;5050064;28;20033;-76
2023/10/10 00:24:32;;;;;;;22.15;3.35;;;;;;;;;;5018970;28;20030;-78
2023/10/10 00:27:12;;;;;;;19.25;3.40;;;;;;;;;;5035444;28;20103;-79
2023/10/10 00:29:42;;;;;;;21.45;3.22;;;;;;;;;;5051140;28;20064;-77
2023/10/10 00:32:13;;;;;;;11.85;3.42;;;;;;;;;;5034531;28;20052;-77
2023/10/10 00:34:38;;;;;;;13.50;2.97;;;;;;;;;;5053808;28;20566;-76
2023/10/10 00:37:13;;;;;;;12.70;2.88;;;;;;;;;;5056391;28;20032;-76
2023/10/10 00:39:38;;;;;;;23.60;3.45;;;;;;;;;;5056841;28;20045;-76
2023/10/10 00:42:06;;;;;;;15.77;3.35;;;;;;;;;;5056540;28;20292;-76
2023/10/10 00:44:34;;;;;;;19.35;4.38;;;;;;;;;;5057094;28;20116;-77
2023/10/10 00:47:03;;;;;;;14.95;3.72;;;;;;;;;;5037917;28;20041;-76
2023/10/10 00:49:31;;;;;;;22.98;4.57;;;;;;;;;;5056485;28;20400;-76
2023/10/10 00:52:01;;;;;;;16.40;4.38;;;;;;;;;;5055199;28;20175;-76
2023/10/10 00:54:31;;;;;;;16.88;2.85;;;;;;;;;;5055808;28;20037;-76
2023/10/10 00:56:59;;;;;;;12.18;3.42;;;;;;;;;;5056313;28;20052;-76
2023/10/10 00:59:47;;;;;;;18.75;3.75;;;;;;;;;;5055835;28;20037;-76
2023/10/10 01:02:12;;;;;;;16.83;3.22;;;;;;;;;;5054924;28;20129;-76
2023/10/10 01:04:39;;;;;;;16.70;3.67;;;;;;;;;;5037333;28;20421;-76
2023/10/10 01:07:08;;;;;;;17.67;3.55;;;;;;;;;;5036793;28;20041;-77
2023/10/10 01:09:39;;;;;;;16.13;4.18;;;;;;;;;;5054556;28;20037;-77
2023/10/10 01:12:05;;;;;;;9.63;2.72;;;;;;;;;;5048724;28;20046;-76
2023/10/10 01:14:31;;;;;;;17.88;2.92;;;;;;;;;;5055641;28;20023;-76
2023/10/10 01:17:01;;;;;;;17.08;3.45;;;;;;;;;;5055118;28;20032;-77
2023/10/10 01:19:30;;;;;;;15.60;3.05;;;;;;;;;;5036884;28;20418;-77
2023/10/10 01:21:57;;;;;;;18.13;3.55;;;;;;;;;;5054642;28;20044;-77
2023/10/10 01:24:27;;;;;;;9.32;2.70;;;;;;;;;;5036722;28;20045;-76
2023/10/10 01:26:52;;;;;;;16.13;3.08;;;;;;;;;;5055331;28;20103;-76
2023/10/10 01:29:25;;;;;;;14.82;3.65;;;;;;;;;;5036767;28;20055;-77
2023/10/10 01:31:54;;;;;;;16.15;3.35;;;;;;;;;;5054458;28;20037;-76
2023/10/10 01:37:21;;;;;;;16.58;3.10;;;;;;;;;;5029974;28;20542;-76
2023/10/10 01:40:01;;;;;;;13.80;3.15;;;;;;;;;;5052718;28;20060;-76
2023/10/10 01:42:37;;;;;;;19.10;3.90;;;;;;;;;;5052978;28;20382;-75
2023/10/10 01:45:07;;;;;;;25.70;4.05;;;;;;;;;;5052995;28;20096;-76
2023/10/10 01:47:34;;;;;;;14.52;3.63;;;;;;;;;;5052432;28;20527;-76
2023/10/10 01:50:07;;;;;;;13.82;2.83;;;;;;;;;;5034877;28;20423;-76
2023/10/10 01:52:34;;;;;;;17.17;3.20;;;;;;;;;;5052488;28;20369;-76
2023/10/10 01:55:00;;;;;;;19.50;3.88;;;;;;;;;;5052752;28;20055;-77
2023/10/10 01:57:26;;;;;;;14.13;3.50;;;;;;;;;;5052927;28;20037;-77
2023/10/10 01:59:51;;;;;;;13.68;2.75;;;;;;;;;;5053431;28;20028;-77
2023/10/10 02:02:21;;;;;;;18.05;3.10;;;;;;;;;;5034496;28;20067;-75
2023/10/10 02:04:47;;;;;;;28.67;3.47;;;;;;;;;;5052572;28;20362;-77
2023/10/10 02:07:22;;;;;;;16.48;3.05;;;;;;;;;;5052319;28;20377;-77
2023/10/10 02:09:58;;;;;;;14.98;3.13;;;;;;;;;;5052251;28;20032;-76
2023/10/10 02:12:26;;;;;;;25.20;3.58;;;;;;;;;;5034283;28;20051;-76
2023/10/10 02:14:54;;;;;;;23.30;3.83;;;;;;;;;;5052838;28;20298;-77
2023/10/10 02:17:22;;;;;;;20.75;4.05;;;;;;;;;;5051945;28;20037;-77
2023/10/10 02:19:59;;;;;;;23.90;3.22;;;;;;;;;;5034150;28;20098;-77
2023/10/10 02:25:54;;;;;;;14.07;3.28;;;;;;;;;;5051740;28;20079;-77
2023/10/10 02:27:55;;;;;;;16.88;3.83;;;;;;;;;;5040861;28;20517;-76
2023/10/10 02:30:34;;;;;;;12.85;3.85;;;;;;;;;;5051745;28;20033;-77
2023/10/10 02:33:02;;;;;;;16.27;3.55;;;;;;;;;;5052573;28;20017;-76
2023/10/10 02:35:33;;;;;;;14.23;3.50;;;;;;;;;;5051762;28;20124;-76
2023/10/10 02:38:03;;;;;;;19.83;3.63;;;;;;;;;;5051096;28;20040;-77
2023/10/10 02:40:31;;;;;;;17.88;3.40;;;;;;;;;;5052076;28;20441;-76
2023/10/10 02:45:44;;;;;;;19.15;4.20;;;;;;;;;;5051287;28;20082;-76
2023/10/10 02:48:20;;;;;;;14.10;3.88;;;;;;;;;;5051787;28;20398;-76
2023/10/10 02:50:45;;;;;;;13.35;3.13;;;;;;;;;;5051851;28;20032;-77
2023/10/10 02:53:12;;;;;;;26.42;4.00;;;;;;;;;;5051177;28;20036;-76
2023/10/10 02:55:41;;;;;;;21.98;4.40;;;;;;;;;;5051989;28;20119;-76
2023/10/10 02:58:20;;;;;;;18.58;3.95;;;;;;;;;;5050812;28;20033;-77
2023/10/10 03:00:49;;;;;;;14.60;3.55;;;;;;;;;;5051066;28;20060;-76
2023/10/10 03:03:18;;;;;;;14.00;3.72;;;;;;;;;;5051683;28;20028;-77
2023/10/10 03:05:50;;;;;;;11.80;3.00;;;;;;;;;;5051407;28;20159;-76
2023/10/10 03:11:01;;;;;;;23.42;3.85;;;;;;;;;;5050057;28;20400;-76
2023/10/10 03:13:28;;;;;;;19.35;3.45;;;;;;;;;;5033162;28;20268;-77
2023/10/10 03:16:12;;;;;;;14.50;3.30;;;;;;;;;;5051212;28;20035;-77
2023/10/10 03:18:50;;;;;;;10.73;3.50;;;;;;;;;;5050552;28;20029;-77
2023/10/10 03:21:24;;;;;;;24.80;3.67;;;;;;;;;;5032604;28;20404;-76
2023/10/10 03:23:55;;;;;;;16.10;3.05;;;;;;;;;;5051234;28;20366;-76
2023/10/10 03:26:51;;;;;;;21.42;3.03;;;;;;;;;;5050397;28;20120;-77
2023/10/10 03:29:20;;;;;;;16.35;3.40;;;;;;;;;;5050661;28;20037;-77
2023/10/10 03:31:48;;;;;;;11.45;3.05;;;;;;;;;;5050201;28;20029;-76
2023/10/10 03:34:21;;;;;;;23.13;3.47;;;;;;;;;;5050166;28;20336;-76
2023/10/10 03:37:10;;;;;;;13.60;3.00;;;;;;;;;;5044164;28;20111;-75
2023/10/10 03:39:44;;;;;;;22.10;4.35;;;;;;;;;;5042616;28;20269;-75
2023/10/10 05:25:55;;;;;;;19.73;4.00;;;;;;;;;;5030622;28;20567;-75
2023/10/10 05:28:21;;;;;;;16.90;3.10;;;;;;;;;;5044902;28;20404;-75
2023/10/10 05:30:46;;;;;;;17.83;4.13;;;;;;;;;;5039730;28;20033;-75
2023/10/10 05:33:13;;;;;;;19.50;3.60;;;;;;;;;;5025490;28;20035;-75
2023/10/10 05:35:43;;;;;;;15.82;3.83;;;;;;;;;;5044599;28;20028;-76
2023/10/10 05:38:09;;;;;;;27.35;4.60;;;;;;;;;;5046238;28;20523;-75
2023/10/10 05:40:38;;;;;;;15.55;3.53;;;;;;;;;;5042653;28;20101;-78
2023/10/10 05:43:04;;;;;;;17.85;3.67;;;;;;;;;;5044715;28;20044;-75
2023/10/10 05:45:30;;;;;;;11.00;3.15;;;;;;;;;;5042263;28;20044;-75
2023/10/10 05:47:55;;;;;;;19.63;3.45;;;;;;;;;;5045126;28;20382;-75
2023/10/10 05:50:22;;;;;;;11.80;3.50;;;;;;;;;;5043651;28;20475;-75
2023/10/10 05:52:48;;;;;;;13.40;3.03;;;;;;;;;;5026939;28;20048;-75
2023/10/10 05:55:14;;;;;;;15.68;3.67;;;;;;;;;;5017332;28;20041;-75
2023/10/10 05:57:41;;;;;;;15.30;4.22;;;;;;;;;;5027181;28;20064;-75
2023/10/10 06:00:13;;;;;;;14.07;2.70;;;;;;;;;;5039443;28;20039;-75
2023/10/10 06:02:42;;;;;;;19.38;3.00;;;;;;;;;;5040668;28;20052;-75
2023/10/10 06:05:09;;;;;;;13.55;3.35;;;;;;;;;;5040430;28;20121;-75
2023/10/10 06:07:37;;;;;;;15.45;3.83;;;;;;;;;;5030636;28;20122;-74
2023/10/10 06:10:06;;;;;;;11.07;3.47;;;;;;;;;;5038899;28;20124;-75
2023/10/10 06:12:33;;;;;;;23.38;3.33;;;;;;;;;;5044192;28;20166;-75
2023/10/10 06:15:05;;;;;;;10.63;3.08;;;;;;;;;;5040972;28;21400;-75
2023/10/10 06:17:31;;;;;;;12.77;3.22;;;;;;;;;;5039066;28;20132;-74
2023/10/10 06:19:56;;;;;;;20.33;3.70;;;;;;;;;;5043208;28;20064;-75
2023/10/10 06:22:22;;;;;;;16.88;3.47;;;;;;;;;;5021142;28;20067;-75
2023/10/10 06:24:49;;;;;;;12.52;3.58;;;;;;;;;;5040324;28;20533;-74
2023/10/10 06:27:14;;;;;;;16.75;3.42;;;;;;;;;;5036428;28;20029;-74
2023/10/10 06:29:40;;;;;;;16.45;3.67;;;;;;;;;;5041201;28;20043;-74
2023/10/10 06:32:10;;;;;;;16.40;4.22;;;;;;;;;;5034155;28;20072;-75
2023/10/10 06:34:36;;;;;;;16.35;3.70;;;;;;;;;;5023717;28;20040;-74
2023/10/10 06:37:07;;;;;;;18.35;3.42;;;;;;;;;;5023692;28;20042;-74
2023/10/10 06:39:54;;;;;;;16.25;3.50;;;;;;;;;;5034898;28;20061;-75
2023/10/10 06:42:27;;;;;;;12.30;3.10;;;;;;;;;;5036764;28;20077;-74
2023/10/10 06:44:53;;;;;;;18.70;3.78;;;;;;;;;;5036925;28;20116;-74
2023/10/10 06:47:18;;;;;;;18.27;3.75;;;;;;;;;;5030932;28;20037;-74
2023/10/10 06:49:43;;;;;;;10.45;2.95;;;;;;;;;;5034059;28;20052;-74
2023/10/10 06:52:18;;;;;;;20.95;3.45;;;;;;;;;;5035428;28;20034;-74
2023/10/10 06:54:44;;;;;;;13.77;3.03;;;;;;;;;;5016854;28;20548;-74
2023/10/10 06:57:17;;;;;;;20.88;4.18;;;;;;;;;;5032831;28;20016;-74
2023/10/10 06:59:42;;;;;;;15.70;3.78;;;;;;;;;;5042094;28;20078;-74
2023/10/10 07:02:20;;;;;;;15.05;3.13;;;;;;;;;;5035350;28;20128;-75
2023/10/10 07:04:52;;;;;;;10.77;2.92;;;;;;;;;;5034954;28;20068;-74
2023/10/10 07:07:21;;;;;;;19.45;4.35;;;;;;;;;;5039531;28;20060;-74
2023/10/10 07:09:47;;;;;;;10.05;3.30;;;;;;;;;;5042954;28;20051;-75
2023/10/10 07:12:15;;;;;;;15.10;3.30;;;;;;;;;;5049943;28;20056;-75
2023/10/10 07:14:46;;;;;;;30.25;4.30;;;;;;;;;;5045739;28;20021;-74
2023/10/10 07:17:13;;;;;;;19.50;3.58;;;;;;;;;;5030235;28;20582;-76
2023/10/10 07:21:04;;;;;;;13.85;4.28;;;;;;;;;;5030409;28;20043;-76
2023/10/10 07:22:41;;;;;;;24.45;3.78;;;;;;;;;;5029757;28;20532;-75
2023/10/10 07:25:08;;;;;;;17.88;3.88;;;;;;;;;;5029988;28;20029;-76
2023/10/10 07:27:39;;;;;;;16.50;3.55;;;;;;;;;;5012400;28;20125;-74
2023/10/10 07:30:16;;;;;;;25.67;3.72;;;;;;;;;;5029940;28;20083;-75
2023/10/10 07:32:42;;;;;;;10.68;3.75;;;;;;;;;;5012833;28;20075;-76
2023/10/10 07:35:14;;;;;;;19.80;3.92;;;;;;;;;;5030065;28;20048;-76
2023/10/10 07:37:41;;;;;;;23.95;4.75;;;;;;;;;;5029853;28;20509;-76
2023/10/10 07:42:43;;;;;;;21.20;4.80;;;;;;;;;;5029676;28;20037;-76
2023/10/10 07:45:15;;;;;;;16.80;3.85;;;;;;;;;;5011207;28;20052;-76
2023/10/10 07:50:34;;;;;;;14.48;3.20;;;;;;;;;;5029774;28;20052;-75
2023/10/10 07:53:04;;;;;;;15.80;3.72;;;;;;;;;;5029709;28;20083;-76
2023/10/10 07:55:34;;;;;;;20.02;4.22;;;;;;;;;;5029806;28;20195;-76
2023/10/10 07:57:59;;;;;;;22.60;6.10;;;;;;;;;;5029906;28;20591;-76
2023/10/10 08:00:35;;;;;;;24.42;3.97;;;;;;;;;;5029593;28;20073;-74
2023/10/10 08:03:05;;;;;;;13.27;3.25;;;;;;;;;;5030120;28;20096;-76
2023/10/10 08:05:31;;;;;;;14.50;4.25;;;;;;;;;;5029570;28;20034;-76
2023/10/10 08:07:56;;;;;;;14.57;3.63;;;;;;;;;;5029484;28;20041;-76
2023/10/10 08:10:37;;;;;;;16.38;3.92;;;;;;;;;;5029476;28;20513;-75
2023/10/10 08:13:10;;;;;;;16.52;4.30;;;;;;;;;;5029395;28;20037;-76
2023/10/10 08:15:56;;;;;;;25.75;4.03;;;;;;;;;;5029465;28;20128;-76
2023/10/10 08:21:10;;;;;;;18.05;3.92;;;;;;;;;;5029326;28;20096;-76
2023/10/10 08:23:46;;;;;;;12.98;3.17;;;;;;;;;;5029882;28;20025;-76
2023/10/10 08:26:17;;;;;;;19.23;3.72;;;;;;;;;;5011479;28;20041;-76
2023/10/10 08:28:49;;;;;;;19.67;3.92;;;;;;;;;;5011637;28;20561;-76
2023/10/10 08:31:16;;;;;;;12.77;3.38;;;;;;;;;;5011499;28;20033;-76
2023/10/10 08:33:45;;;;;;;18.35;3.92;;;;;;;;;;5011724;28;20400;-76
2023/10/10 08:36:12;;;;;;;13.75;3.72;;;;;;;;;;5027805;28;20049;-76
2023/10/10 08:38:42;;;;;;;12.07;2.88;;;;;;;;;;5028506;28;20021;-76
2023/10/10 08:41:08;;;;;;;14.63;3.67;;;;;;;;;;5027580;28;20080;-76
2023/10/10 08:43:36;;;;;;;14.75;3.28;;;;;;;;;;5010541;28;20037;-76
2023/10/10 08:46:04;;;;;;;19.27;3.05;;;;;;;;;;5028443;28;20377;-76
2023/10/10 08:48:33;;;;;;;15.13;3.70;;;;;;;;;;5028955;28;20033;-76
2023/10/10 08:51:03;;;;;;;16.65;2.70;;;;;;;;;;5029914;28;20021;-76
2023/10/10 08:53:30;;;;;;;16.77;3.83;;;;;;;;;;5029492;28;20120;-76
2023/10/10 08:55:58;;;;;;;20.17;4.05;;;;;;;;;;5029628;28;20429;-74
2023/10/10 08:58:24;;;;;;;9.68;3.55;;;;;;;;;;5032934;28;20564;-76
2023/10/10 09:00:49;;;;;;;14.57;3.25;;;;;;;;;;5033087;28;20022;-76
2023/10/10 09:05:56;;;;;;;15.50;3.53;;;;;;;;;;5979236;22;20053;-77
2023/10/10 09:08:27;;;;;;;20.05;3.78;;;;;;;;;;5015591;28;20045;-76
2023/10/10 09:10:57;;;;;;;17.63;3.03;;;;;;;;;;5018335;28;20181;-76
2023/10/10 09:13:25;;;;;;;24.30;3.53;;;;;;;;;;5020094;28;20044;-76
2023/10/10 09:15:55;;;;;;;14.38;3.00;;;;;;;;;;5009140;28;20124;-76
2023/10/10 09:18:25;;;;;;;18.08;3.03;;;;;;;;;;5013925;28;20018;-76
2023/10/10 09:20:53;;;;;;;20.98;3.92;;;;;;;;;;5029091;22;20078;-82
2023/10/10 09:23:38;;;;;;;15.30;3.80;;;;;;;;;;5019853;28;20505;-80
2023/10/10 09:28:55;;;;;;;10.23;3.05;;;;;;;;;;5020388;28;20124;-79
2023/10/10 09:31:26;;;;;;;18.20;4.60;;;;;;;;;;5027496;28;20050;-81
2023/10/10 09:33:55;;;;;;;12.70;3.35;;;;;;;;;;5028808;28;20030;-79
2023/10/10 09:36:26;;;;;;;22.27;4.15;;;;;;;;;;5028958;28;20029;-81
2023/10/10 09:39:08;;;;;;;13.35;3.22;;;;;;;;;;5021633;28;20127;-78
2023/10/10 09:49:52;;;;;;;11.75;3.85;;;;;;;;;;5033591;28;20028;-79
2023/10/10 09:57:42;;;;;;;12.75;3.70;;;;;;;;;;5038689;28;20048;-79
2023/10/10 10:00:52;;;;;;;10.68;3.47;;;;;;;;;;5032882;28;20048;-81
2023/10/10 10:03:24;;;;;;;14.25;3.75;;;;;;;;;;5032968;28;20068;-80
2023/10/10 10:05:58;;;;;;;12.68;3.25;;;;;;;;;;5041161;28;20030;-80
2023/10/10 10:09:08;;;;;;;21.38;4.00;;;;;;;;;;5032681;28;20038;-80
2023/10/10 10:11:43;;;;;;;19.88;3.42;;;;;;;;;;5033242;28;20049;-81
2023/10/10 10:14:25;;;;;;;21.98;3.45;;;;;;;;;;5044319;28;20112;-79
2023/10/10 10:17:12;;;;;;;14.10;3.60;;;;;;;;;;5039253;28;20050;-81
2023/10/10 10:19:45;;;;;;;11.48;3.08;;;;;;;;;;5042491;28;20068;-79
2023/10/10 10:22:17;;;;;;;17.98;3.60;;;;;;;;;;5040303;28;20045;-81
2023/10/10 10:24:48;;;;;;;18.90;4.15;;;;;;;;;;5041689;28;20037;-79
2023/10/10 10:27:39;;;;;;;20.58;3.25;;;;;;;;;;5042241;28;20045;-80
2023/10/10 10:32:54;;;;;;;11.30;4.10;;;;;;;;;;5042612;28;20493;-81
2023/10/10 10:35:22;;;;;;;13.27;3.30;;;;;;;;;;5041212;28;20053;-80
2023/10/10 10:37:59;;;;;;;12.20;3.58;;;;;;;;;;5041341;28;20030;-79
2023/10/10 10:40:41;;;;;;;14.73;3.42;;;;;;;;;;5039270;28;20064;-82
2023/10/10 10:43:13;;;;;;;15.05;3.30;;;;;;;;;;5042649;28;20033;-80
2023/10/10 10:45:44;;;;;;;17.15;4.00;;;;;;;;;;5041950;28;20026;-79
2023/10/10 10:48:29;;;;;;;29.95;3.55;;;;;;;;;;5042447;28;20063;-78
2023/10/10 10:51:22;;;;;;;15.85;3.88;;;;;;;;;;5041125;28;20083;-80
2023/10/10 10:53:56;;;;;;;9.00;3.63;;;;;;;;;;5042004;28;20030;-80
2023/10/10 10:59:13;;;;;;;15.75;3.97;;;;;;;;;;5042859;28;20045;-80
2023/10/10 11:01:55;;;;;;;18.17;3.60;;;;;;;;;;5037738;28;20042;-79
2023/10/10 11:04:35;;;;;;;10.73;3.88;;;;;;;;;;5040899;28;20037;-81
2023/10/10 11:07:07;;;;;;;16.80;4.47;;;;;;;;;;5037916;28;20068;-79
2023/10/10 11:09:34;;;;;;;24.92;3.85;;;;;;;;;;5036443;28;20105;-80
2023/10/10 11:12:06;;;;;;;16.73;3.00;;;;;;;;;;5041643;28;20021;-80
2023/10/10 11:14:44;;;;;;;10.13;3.38;;;;;;;;;;5044981;28;20025;-81
2023/10/10 11:17:17;;;;;;;21.73;3.88;;;;;;;;;;5037767;28;20045;-81
2023/10/10 11:19:43;;;;;;;12.10;3.35;;;;;;;;;;5038324;28;20033;-79
2023/10/10 11:25:11;;;;;;;13.07;2.97;;;;;;;;;;4982112;28;20655;-81
2023/10/10 11:27:43;;;;;;;12.75;3.15;;;;;;;;;;5030144;28;20081;-79
2023/10/10 11:30:11;;;;;;;22.65;3.83;;;;;;;;;;5034797;28;20021;-81
2023/10/10 11:32:46;;;;;;;15.65;3.80;;;;;;;;;;5037218;28;20017;-79
2023/10/10 11:35:17;;;;;;;18.20;3.53;;;;;;;;;;5041548;28;20037;-79
2023/10/10 11:37:49;;;;;;;18.42;3.42;;;;;;;;;;5042758;28;20040;-80
2023/10/10 11:42:56;;;;;;;18.27;3.53;;;;;;;;;;5043368;28;20059;-80
2023/10/10 11:45:26;;;;;;;20.73;4.22;;;;;;;;;;5039696;28;20025;-80
2023/10/10 11:47:52;;;;;;;16.48;3.67;;;;;;;;;;5037432;28;20056;-80
2023/10/10 11:50:21;;;;;;;14.27;3.58;;;;;;;;;;5036242;28;20034;-80
2023/10/10 11:52:52;;;;;;;12.40;3.00;;;;;;;;;;5036539;28;20037;-80
2023/10/10 11:55:21;;;;;;;18.98;3.67;;;;;;;;;;5039737;28;20037;-80
2023/10/10 11:57:50;;;;;;;9.02;3.10;;;;;;;;;;5034696;28;20124;-80
2023/10/10 12:00:22;;;;;;;19.85;3.35;;;;;;;;;;5027401;28;20018;-80
2023/10/10 12:02:50;;;;;;;18.73;3.70;;;;;;;;;;5033523;28;20025;-79
2023/10/10 12:07:53;;;;;;;23.35;4.05;;;;;;;;;;5031926;28;20048;-79
2023/10/10 12:10:24;;;;;;;23.50;3.92;;;;;;;;;;5032041;28;20049;-80
2023/10/10 12:12:52;;;;;;;18.00;4.50;;;;;;;;;;5038681;28;20204;-79
2023/10/10 12:15:19;;;;;;;22.73;3.80;;;;;;;;;;5036836;28;20076;-80
2023/10/10 12:17:45;;;;;;;17.10;4.18;;;;;;;;;;5026369;28;20018;-81
2023/10/10 12:20:10;;;;;;;13.63;3.17;;;;;;;;;;5015400;28;20122;-80
2023/10/10 12:22:37;;;;;;;15.20;3.80;;;;;;;;;;5018779;28;20057;-80
2023/10/10 12:25:04;;;;;;;21.38;3.70;;;;;;;;;;5013777;28;20549;-79
2023/10/10 12:27:30;;;;;;;15.00;3.40;;;;;;;;;;5020634;28;20052;-81
2023/10/10 12:29:56;;;;;;;18.92;4.07;;;;;;;;;;5039172;28;20034;-79
2023/10/10 12:32:22;;;;;;;11.70;3.20;;;;;;;;;;5038890;28;20040;-80
2023/10/10 12:34:49;;;;;;;13.90;4.38;;;;;;;;;;5040946;28;20038;-79
2023/10/10 12:37:17;;;;;;;16.00;4.57;;;;;;;;;;5035334;28;20041;-80
2023/10/10 12:39:43;;;;;;;30.85;5.57;;;;;;;;;;5039837;28;20565;-81
2023/10/10 12:42:08;;;;;;;15.18;4.10;;;;;;;;;;5037460;28;20037;-81
2023/10/10 12:44:34;;;;;;;18.27;4.05;;;;;;;;;;5037727;28;20069;-80
2023/10/10 12:47:06;;;;;;;14.43;3.67;;;;;;;;;;5039212;28;20060;-79
2023/10/10 12:49:52;;;;;;;18.58;4.75;;;;;;;;;;5037337;28;20097;-81
2023/10/10 12:52:18;;;;;;;18.27;4.82;;;;;;;;;;5042327;28;20077;-80
2023/10/10 12:54:46;;;;;;;15.02;3.53;;;;;;;;;;5040516;28;20068;-80
2023/10/10 12:57:14;;;;;;;15.18;3.97;;;;;;;;;;5036670;28;20018;-80
2023/10/10 12:59:46;;;;;;;22.65;4.00;;;;;;;;;;5040875;28;20061;-80
2023/10/10 13:02:15;;;;;;;13.63;3.55;;;;;;;;;;5034398;28;20179;-80
2023/10/10 13:04:45;;;;;;;19.70;3.17;;;;;;;;;;5040191;28;20073;-79
2023/10/10 13:07:11;;;;;;;17.38;3.55;;;;;;;;;;5039575;28;20026;-80
2023/10/10 13:09:42;;;;;;;15.50;3.90;;;;;;;;;;5043783;28;20503;-81
2023/10/10 13:12:09;;;;;;;16.38;3.50;;;;;;;;;;5043175;28;20028;-80
2023/10/10 13:14:34;;;;;;;13.57;4.18;;;;;;;;;;5047131;28;20036;-79
2023/10/10 13:19:44;;;;;;;15.80;3.63;;;;;;;;;;5038248;28;20130;-81
2023/10/10 13:22:20;;;;;;;18.75;3.90;;;;;;;;;;5036314;28;20049;-80
2023/10/10 13:24:46;;;;;;;23.73;3.40;;;;;;;;;;5042810;28;20548;-80
2023/10/10 13:27:11;;;;;;;20.35;3.75;;;;;;;;;;5045891;28;20025;-78
2023/10/10 13:29:37;;;;;;;14.32;3.42;;;;;;;;;;5042637;28;20025;-82
2023/10/10 13:32:04;;;;;;;12.30;3.20;;;;;;;;;;5040887;28;20088;-80
2023/10/10 13:34:29;;;;;;;12.98;3.00;;;;;;;;;;5040386;28;20030;-81
2023/10/10 13:36:56;;;;;;;14.82;3.08;;;;;;;;;;5039688;28;20042;-81
2023/10/10 13:39:43;;;;;;;21.20;4.05;;;;;;;;;;5038109;28;20045;-80
2023/10/10 13:42:20;;;;;;;16.67;4.53;;;;;;;;;;5037984;28;20021;-80
2023/10/10 13:44:48;;;;;;;14.68;3.00;;;;;;;;;;5034933;28;20049;-81
2023/10/10 13:47:13;;;;;;;14.57;3.85;;;;;;;;;;5024535;28;20046;-80
2023/10/10 13:49:44;;;;;;;26.13;4.10;;;;;;;;;;5014825;28;20034;-79
2023/10/10 13:52:11;;;;;;;19.08;4.07;;;;;;;;;;5024585;28;20526;-81
2023/10/10 13:54:36;;;;;;;27.33;3.85;;;;;;;;;;5017877;28;20030;-82
2023/10/10 13:57:02;;;;;;;15.73;3.40;;;;;;;;;;5015051;28;20503;-82
2023/10/10 13:59:27;;;;;;;20.55;3.35;;;;;;;;;;5027499;28;20389;-81
2023/10/10 14:01:54;;;;;;;20.65;3.25;;;;;;;;;;5020716;28;20422;-81
2023/10/10 14:04:27;;;;;;;23.90;4.18;;;;;;;;;;5021882;28;20470;-81
2023/10/10 14:06:54;;;;;;;14.90;3.07;;;;;;;;;;5024791;28;20040;-81
2023/10/10 14:09:25;;;;;;;25.13;3.83;;;;;;;;;;5030243;28;20272;-80
2023/10/10 14:11:56;;;;;;;20.92;3.80;;;;;;;;;;5025917;28;20055;-80
2023/10/10 14:14:22;;;;;;;11.15;3.10;;;;;;;;;;5026524;28;20030;-79
2023/10/10 14:16:47;;;;;;;13.45;3.45;;;;;;;;;;5025180;28;20036;-80
2023/10/10 14:19:12;;;;;;;16.50;3.67;;;;;;;;;;5022846;28;20026;-80
2023/10/10 14:21:38;;;;;;;25.17;3.85;;;;;;;;;;5023604;28;20480;-80
2023/10/10 14:24:13;;;;;;;21.30;3.67;;;;;;;;;;5027713;28;20299;-80
2023/10/10 14:26:43;;;;;;;11.05;2.80;;;;;;;;;;5026340;28;20080;-79
2023/10/10 14:29:12;;;;;;;15.63;2.63;;;;;;;;;;5024323;28;20029;-79
2023/10/10 14:31:42;;;;;;;20.45;3.20;;;;;;;;;;5025850;28;20124;-80
2023/10/10 14:34:08;;;;;;;13.18;3.83;;;;;;;;;;5021171;28;20086;-80
2023/10/10 14:36:39;;;;;;;16.58;3.65;;;;;;;;;;5021331;28;20125;-82
2023/10/10 14:39:08;;;;;;;19.58;4.38;;;;;;;;;;5011463;28;20109;-82
2023/10/10 14:41:34;;;;;;;17.65;3.90;;;;;;;;;;5012481;28;20032;-80
2023/10/10 14:44:01;;;;;;;16.88;3.28;;;;;;;;;;5013820;28;20034;-80
2023/10/10 14:46:31;;;;;;;21.02;3.67;;;;;;;;;;5004336;28;20413;-81
2023/10/10 14:49:01;;;;;;;18.45;3.58;;;;;;;;;;5021829;28;20514;-80
2023/10/10 14:51:33;;;;;;;26.58;5.93;;;;;;;;;;5017951;28;20026;-80
2023/10/10 14:54:05;;;;;;;21.02;4.00;;;;;;;;;;5018040;28;20026;-79
2023/10/10 14:56:34;;;;;;;18.10;4.30;;;;;;;;;;5023433;28;20037;-79
2023/10/10 14:59:01;;;;;;;21.13;3.25;;;;;;;;;;5018740;28;20038;-80
2023/10/10 15:01:27;;;;;;;27.42;4.20;;;;;;;;;;5018911;28;20421;-81
2023/10/10 15:03:54;;;;;;;19.77;3.28;;;;;;;;;;5020274;28;20034;-80
2023/10/10 15:06:21;;;;;;;22.02;4.10;;;;;;;;;;5021122;28;20087;-81
2023/10/10 15:08:46;;;;;;;14.50;3.10;;;;;;;;;;5013954;28;20033;-81
2023/10/10 15:11:12;;;;;;;18.90;4.45;;;;;;;;;;5006049;28;20034;-81
2023/10/10 15:13:41;;;;;;;16.20;3.40;;;;;;;;;;5017177;28;20030;-81
2023/10/10 15:16:10;;;;;;;18.50;3.40;;;;;;;;;;5004573;28;20042;-82
2023/10/10 15:18:36;;;;;;;15.57;3.50;;;;;;;;;;5014171;28;20457;-79
2023/10/10 15:21:02;;;;;;;12.15;3.42;;;;;;;;;;5023689;28;20516;-78
2023/10/10 15:23:28;;;;;;;18.98;3.47;;;;;;;;;;5026850;28;20111;-76
2023/10/10 15:25:58;;;;;;;19.80;3.53;;;;;;;;;;5025653;28;20026;-77
2023/10/10 15:28:23;;;;;;;12.77;3.72;;;;;;;;;;5011707;28;20041;-78
2023/10/10 15:30:49;;;;;;;17.20;4.15;;;;;;;;;;5015302;28;20154;-77
2023/10/10 15:33:18;;;;;;;25.90;4.07;;;;;;;;;;5021019;28;20022;-77
2023/10/10 15:35:46;;;;;;;19.02;3.28;;;;;;;;;;5026034;28;20106;-77
2023/10/10 15:38:12;;;;;;;14.85;3.22;;;;;;;;;;5024724;28;20044;-77
2023/10/10 15:40:43;;;;;;;20.90;3.67;;;;;;;;;;5017946;28;20212;-77
2023/10/10 15:43:11;;;;;;;12.88;3.40;;;;;;;;;;5023181;28;20029;-78
2023/10/10 15:45:38;;;;;;;14.48;3.42;;;;;;;;;;5015452;28;20544;-77
2023/10/10 15:48:03;;;;;;;18.38;4.00;;;;;;;;;;5013080;28;20055;-77
2023/10/10 15:50:31;;;;;;;12.48;3.63;;;;;;;;;;5018473;28;20128;-77
2023/10/10 15:52:57;;;;;;;17.23;3.65;;;;;;;;;;5014578;28;20125;-77
2023/10/10 15:55:25;;;;;;;21.75;4.38;;;;;;;;;;5019579;28;20124;-77
2023/10/10 15:57:54;;;;;;;17.73;3.05;;;;;;;;;;5016741;28;20562;-77
2023/10/10 16:00:33;;;;;;;17.13;3.88;;;;;;;;;;5017503;28;20069;-77
2023/10/10 16:02:59;;;;;;;25.35;3.70;;;;;;;;;;5021264;28;20464;-77
2023/10/10 16:05:25;;;;;;;15.73;3.65;;;;;;;;;;5016747;28;20030;-77
2023/10/10 16:07:51;;;;;;;24.50;3.78;;;;;;;;;;5017932;28;20030;-77
2023/10/10 16:10:17;;;;;;;18.90;3.63;;;;;;;;;;5019845;28;20037;-77
2023/10/10 16:12:43;;;;;;;13.45;2.80;;;;;;;;;;5022932;28;20044;-77
2023/10/10 16:15:22;;;;;;;25.42;4.35;;;;;;;;;;5023730;28;20021;-79
2023/10/10 16:17:51;;;;;;;10.40;3.75;;;;;;;;;;5012817;28;20033;-77
2023/10/10 16:20:22;;;;;;;18.10;3.58;;;;;;;;;;5020821;28;20428;-76
2023/10/10 16:22:47;;;;;;;9.30;2.78;;;;;;;;;;5024023;28;20379;-79
2023/10/10 16:25:13;;;;;;;18.60;3.90;;;;;;;;;;5016617;28;20036;-77
2023/10/10 16:27:40;;;;;;;12.35;3.05;;;;;;;;;;5016174;28;20037;-77
2023/10/10 16:30:07;;;;;;;32.92;3.90;;;;;;;;;;5020445;28;20029;-77
2023/10/10 16:32:35;;;;;;;17.92;3.78;;;;;;;;;;5021160;28;20026;-78
2023/10/10 16:35:04;;;;;;;20.23;3.42;;;;;;;;;;5015496;28;20042;-77
2023/10/10 16:37:30;;;;;;;9.15;2.85;;;;;;;;;;5018941;28;20037;-79
2023/10/10 16:39:55;;;;;;;24.42;3.80;;;;;;;;;;5014525;28;20612;-77
2023/10/10 16:42:23;;;;;;;22.75;3.28;;;;;;;;;;5019691;28;21024;-76
2023/10/10 16:44:53;;;;;;;14.23;3.53;;;;;;;;;;5020451;28;20112;-78
2023/10/10 16:47:19;;;;;;;11.10;3.53;;;;;;;;;;5016052;28;20167;-77
2023/10/10 16:49:51;;;;;;;12.02;3.63;;;;;;;;;;5017794;28;20503;-77
2023/10/10 16:52:17;;;;;;;14.85;3.15;;;;;;;;;;5015601;28;20070;-77
2023/10/10 16:54:50;;;;;;;13.57;3.13;;;;;;;;;;5016593;28;20033;-78
2023/10/10 16:57:16;;;;;;;14.45;4.00;;;;;;;;;;5016413;28;20104;-77
2023/10/10 16:59:42;;;;;;;8.32;3.13;;;;;;;;;;5019644;28;20045;-77
2023/10/10 17:02:08;;;;;;;12.18;3.05;;;;;;;;;;5021166;28;20037;-77
2023/10/10 17:04:33;;;;;;;18.88;4.15;;;;;;;;;;5013721;28;20040;-78
2023/10/10 17:06:59;;;;;;;13.35;4.13;;;;;;;;;;5013611;28;20125;-78
2023/10/10 17:09:26;;;;;;;9.95;3.10;;;;;;;;;;5012857;28;20167;-78
2023/10/10 17:11:51;;;;;;;12.70;3.63;;;;;;;;;;5009717;28;20045;-77
2023/10/10 17:14:18;;;;;;;17.52;3.75;;;;;;;;;;5017288;28;20030;-78
2023/10/10 17:16:44;;;;;;;10.02;3.38;;;;;;;;;;5014842;28;20041;-78
2023/10/10 17:19:10;;;;;;;11.05;3.45;;;;;;;;;;5018547;28;20496;-78
2023/10/10 17:21:35;;;;;;;16.52;3.63;;;;;;;;;;5021731;28;20077;-78
2023/10/10 17:24:03;;;;;;;17.55;3.63;;;;;;;;;;5022171;28;20014;-78
2023/10/10 17:26:30;;;;;;;15.85;3.63;;;;;;;;;;5019239;28;20033;-79